sensor_id;sensor_type;location;lat;lon;timestamp;temperature;humidity
9951;DHT22;24074;49.254;6.702;2023-06-10T00:00:12;15.90;99.90
9951;DHT22;24074;49.254;6.702;2023-06-10T00:02:40;15.80;99.90
9951;DHT22;24074;49.254;6.702;2023-06-10T00:05:07;15.80;99.90
9951;DHT22;24074;49.254;6.702;2023-06-10T00:07:33;15.80;99.90
9951;DHT22;24074;49.254;6.702;2023-06-10T00:10:06;15.70;99.90
9951;DHT22;24074;49.254;6.702;2023-06-10T00:12:32;15.70;99.90
9951;DHT22;24074;49.254;6.702;2023-06-10T00:15:03;15.60;99.90
9951;DHT22;24074;49.254;6.702;2023-06-10T00:17:30;15.70;99.90
9951;DHT22;24074;49.254;6.702;2023-06-10T00:19:56;15.60;99.90
9951;DHT22;24074;49.254;6.702;2023-06-10T00:22:22;15.60;99.90
9951;DHT22;24074;49.254;6.702;2023-06-10T00:24:47;15.60;99.90
9951;DHT22;24074;49.254;6.702;2023-06-10T00:27:13;15.50;99.90
9951;DHT22;24074;49.254;6.702;2023-06-10T00:29:39;15.50;99.90
9951;DHT22;24074;49.254;6.702;2023-06-10T00:32:05;15.40;99.90
9951;DHT22;24074;49.254;6.702;2023-06-10T00:34:31;15.30;99.90
9951;DHT22;24074;49.254;6.702;2023-06-10T00:36:57;15.30;99.90
9951;DHT22;24074;49.254;6.702;2023-06-10T00:39:23;15.20;99.90
9951;DHT22;24074;49.254;6.702;2023-06-10T00:41:48;15.10;99.90
9951;DHT22;24074;49.254;6.702;2023-06-10T00:44:15;15.10;99.90
9951;DHT22;24074;49.254;6.702;2023-06-10T00:46:41;15.10;99.90
9951;DHT22;24074;49.254;6.702;2023-06-10T00:49:07;15.00;99.90
9951;DHT22;24074;49.254;6.702;2023-06-10T00:51:33;15.00;99.90
9951;DHT22;24074;49.254;6.702;2023-06-10T00:54:00;15.00;99.90
9951;DHT22;24074;49.254;6.702;2023-06-10T00:56:25;14.90;99.90
9951;DHT22;24074;49.254;6.702;2023-06-10T00:58:52;14.90;99.90
9951;DHT22;24074;49.254;6.702;2023-06-10T01:01:17;14.80;99.90
9951;DHT22;24074;49.254;6.702;2023-06-10T01:03:45;14.80;99.90
9951;DHT22;24074;49.254;6.702;2023-06-10T01:08:50;14.80;99.90
9951;DHT22;24074;49.254;6.702;2023-06-10T01:11:22;14.70;99.90
9951;DHT22;24074;49.254;6.702;2023-06-10T01:13:50;14.70;99.90
9951;DHT22;24074;49.254;6.702;2023-06-10T01:16:18;14.70;99.90
9951;DHT22;24074;49.254;6.702;2023-06-10T01:18:44;14.70;99.90
9951;DHT22;24074;49.254;6.702;2023-06-10T01:21:19;14.70;99.90
9951;DHT22;24074;49.254;6.702;2023-06-10T01:23:45;14.60;99.90
9951;DHT22;24074;49.254;6.702;2023-06-10T01:26:11;14.50;99.90
9951;DHT22;24074;49.254;6.702;2023-06-10T01:28:44;14.50;99.90
9951;DHT22;24074;49.254;6.702;2023-06-10T01:33:45;14.40;99.90
9951;DHT22;24074;49.254;6.702;2023-06-10T01:36:13;14.40;99.90
9951;DHT22;24074;49.254;6.702;2023-06-10T01:38:43;14.40;99.90
9951;DHT22;24074;49.254;6.702;2023-06-10T01:41:10;14.30;99.90
9951;DHT22;24074;49.254;6.702;2023-06-10T01:43:40;14.30;99.90
9951;DHT22;24074;49.254;6.702;2023-06-10T01:46:07;14.20;99.90
9951;DHT22;24074;49.254;6.702;2023-06-10T01:48:33;14.20;99.90
9951;DHT22;24074;49.254;6.702;2023-06-10T01:50:59;14.20;99.90
9951;DHT22;24074;49.254;6.702;2023-06-10T01:53:24;14.30;99.90
9951;DHT22;24074;49.254;6.702;2023-06-10T01:55:50;14.20;99.90
9951;DHT22;24074;49.254;6.702;2023-06-10T01:58:16;14.20;99.90
9951;DHT22;24074;49.254;6.702;2023-06-10T02:00:41;14.10;99.90
9951;DHT22;24074;49.254;6.702;2023-06-10T02:03:07;14.10;99.90
9951;DHT22;24074;49.254;6.702;2023-06-10T02:05:32;14.20;99.90
9951;DHT22;24074;49.254;6.702;2023-06-10T02:07:58;14.20;99.90
9951;DHT22;24074;49.254;6.702;2023-06-10T02:10:24;14.20;99.90
9951;DHT22;24074;49.254;6.702;2023-06-10T02:12:50;14.20;99.90
9951;DHT22;24074;49.254;6.702;2023-06-10T02:15:15;14.10;99.90
9951;DHT22;24074;49.254;6.702;2023-06-10T02:17:41;14.10;99.90
9951;DHT22;24074;49.254;6.702;2023-06-10T02:20:07;14.10;99.90
9951;DHT22;24074;49.254;6.702;2023-06-10T02:22:36;14.10;99.90
9951;DHT22;24074;49.254;6.702;2023-06-10T02:25:03;14.00;99.90
9951;DHT22;24074;49.254;6.702;2023-06-10T02:27:29;13.90;99.90
9951;DHT22;24074;49.254;6.702;2023-06-10T02:29:56;13.90;99.90
9951;DHT22;24074;49.254;6.702;2023-06-10T02:32:21;13.90;99.90
9951;DHT22;24074;49.254;6.702;2023-06-10T02:34:47;13.80;99.90
9951;DHT22;24074;49.254;6.702;2023-06-10T02:37:14;13.80;99.90
9951;DHT22;24074;49.254;6.702;2023-06-10T02:39:40;13.70;99.90
9951;DHT22;24074;49.254;6.702;2023-06-10T02:42:06;13.80;99.90
9951;DHT22;24074;49.254;6.702;2023-06-10T02:44:32;13.80;99.90
9951;DHT22;24074;49.254;6.702;2023-06-10T02:46:57;13.70;99.90
9951;DHT22;24074;49.254;6.702;2023-06-10T02:49:23;13.60;99.90
9951;DHT22;24074;49.254;6.702;2023-06-10T02:51:50;13.60;99.90
9951;DHT22;24074;49.254;6.702;2023-06-10T02:54:25;13.60;99.90
9951;DHT22;24074;49.254;6.702;2023-06-10T02:56:51;13.60;99.90
9951;DHT22;24074;49.254;6.702;2023-06-10T02:59:17;13.60;99.90
9951;DHT22;24074;49.254;6.702;2023-06-10T03:01:43;13.60;99.90
9951;DHT22;24074;49.254;6.702;2023-06-10T03:04:08;13.50;99.90
9951;DHT22;24074;49.254;6.702;2023-06-10T03:06:35;13.50;99.90
9951;DHT22;24074;49.254;6.702;2023-06-10T03:09:02;13.50;99.90
9951;DHT22;24074;49.254;6.702;2023-06-10T03:11:29;13.50;99.90
9951;DHT22;24074;49.254;6.702;2023-06-10T03:13:56;13.50;99.90
9951;DHT22;24074;49.254;6.702;2023-06-10T03:16:21;13.60;99.90
9951;DHT22;24074;49.254;6.702;2023-06-10T03:18:48;13.50;99.90
9951;DHT22;24074;49.254;6.702;2023-06-10T03:21:14;13.40;99.90
9951;DHT22;24074;49.254;6.702;2023-06-10T03:23:39;13.30;99.90
9951;DHT22;24074;49.254;6.702;2023-06-10T03:26:08;13.30;99.90
9951;DHT22;24074;49.254;6.702;2023-06-10T03:28:35;13.30;99.90
9951;DHT22;24074;49.254;6.702;2023-06-10T03:31:01;13.30;99.90
9951;DHT22;24074;49.254;6.702;2023-06-10T03:33:26;13.30;99.90
9951;DHT22;24074;49.254;6.702;2023-06-10T03:35:52;13.30;99.90
9951;DHT22;24074;49.254;6.702;2023-06-10T03:38:19;13.40;99.90
9951;DHT22;24074;49.254;6.702;2023-06-10T03:40:44;13.50;99.90
9951;DHT22;24074;49.254;6.702;2023-06-10T03:43:10;13.40;99.90
9951;DHT22;24074;49.254;6.702;2023-06-10T03:45:36;13.50;99.90
9951;DHT22;24074;49.254;6.702;2023-06-10T03:48:01;13.40;99.90
9951;DHT22;24074;49.254;6.702;2023-06-10T03:50:31;13.50;99.90
9951;DHT22;24074;49.254;6.702;2023-06-10T03:52:57;13.50;99.90
9951;DHT22;24074;49.254;6.702;2023-06-10T03:55:23;13.60;99.90
9951;DHT22;24074;49.254;6.702;2023-06-10T03:57:49;13.60;99.90
9951;DHT22;24074;49.254;6.702;2023-06-10T04:00:16;13.60;99.90
9951;DHT22;24074;49.254;6.702;2023-06-10T04:02:43;13.60;99.90
9951;DHT22;24074;49.254;6.702;2023-06-10T04:05:12;13.60;99.90
9951;DHT22;24074;49.254;6.702;2023-06-10T04:07:39;13.60;99.90
9951;DHT22;24074;49.254;6.702;2023-06-10T04:10:06;13.70;99.90
9951;DHT22;24074;49.254;6.702;2023-06-10T04:12:32;13.70;99.90
9951;DHT22;24074;49.254;6.702;2023-06-10T04:14:58;13.60;99.90
9951;DHT22;24074;49.254;6.702;2023-06-10T04:17:23;13.70;99.90
9951;DHT22;24074;49.254;6.702;2023-06-10T04:19:49;13.80;99.90
9951;DHT22;24074;49.254;6.702;2023-06-10T04:22:16;13.90;99.90
9951;DHT22;24074;49.254;6.702;2023-06-10T04:24:42;14.00;99.90
9951;DHT22;24074;49.254;6.702;2023-06-10T04:27:08;14.20;99.90
9951;DHT22;24074;49.254;6.702;2023-06-10T04:29:33;14.50;99.90
9951;DHT22;24074;49.254;6.702;2023-06-10T04:31:59;14.60;99.90
9951;DHT22;24074;49.254;6.702;2023-06-10T04:34:27;14.80;99.90
9951;DHT22;24074;49.254;6.702;2023-06-10T04:36:52;15.10;99.90
9951;DHT22;24074;49.254;6.702;2023-06-10T04:39:18;15.40;99.90
9951;DHT22;24074;49.254;6.702;2023-06-10T04:41:44;15.90;99.90
9951;DHT22;24074;49.254;6.702;2023-06-10T04:44:09;16.10;99.90
9951;DHT22;24074;49.254;6.702;2023-06-10T04:46:36;16.20;99.90
9951;DHT22;24074;49.254;6.702;2023-06-10T04:49:02;16.40;99.90
9951;DHT22;24074;49.254;6.702;2023-06-10T04:51:28;16.60;99.90
9951;DHT22;24074;49.254;6.702;2023-06-10T04:53:53;16.80;99.90
9951;DHT22;24074;49.254;6.702;2023-06-10T04:56:19;17.00;99.90
9951;DHT22;24074;49.254;6.702;2023-06-10T04:58:45;17.00;99.90
9951;DHT22;24074;49.254;6.702;2023-06-10T05:01:11;17.00;99.90
9951;DHT22;24074;49.254;6.702;2023-06-10T05:03:36;17.10;99.90
9951;DHT22;24074;49.254;6.702;2023-06-10T05:06:02;17.20;99.90
9951;DHT22;24074;49.254;6.702;2023-06-10T05:08:27;17.20;99.90
9951;DHT22;24074;49.254;6.702;2023-06-10T05:10:53;17.30;99.90
9951;DHT22;24074;49.254;6.702;2023-06-10T05:13:18;17.40;99.90
9951;DHT22;24074;49.254;6.702;2023-06-10T05:15:44;17.40;99.90
9951;DHT22;24074;49.254;6.702;2023-06-10T05:18:11;17.60;99.90
9951;DHT22;24074;49.254;6.702;2023-06-10T05:20:38;17.70;99.90
9951;DHT22;24074;49.254;6.702;2023-06-10T05:23:03;17.80;99.90
9951;DHT22;24074;49.254;6.702;2023-06-10T05:25:34;17.90;99.90
9951;DHT22;24074;49.254;6.702;2023-06-10T05:28:00;18.20;99.90
9951;DHT22;24074;49.254;6.702;2023-06-10T05:30:26;18.50;99.90
9951;DHT22;24074;49.254;6.702;2023-06-10T05:32:52;19.30;99.90
9951;DHT22;24074;49.254;6.702;2023-06-10T05:35:18;20.30;99.90
9951;DHT22;24074;49.254;6.702;2023-06-10T05:37:44;21.50;99.90
9951;DHT22;24074;49.254;6.702;2023-06-10T05:40:10;22.80;99.90
9951;DHT22;24074;49.254;6.702;2023-06-10T05:42:35;23.80;99.90
9951;DHT22;24074;49.254;6.702;2023-06-10T05:45:02;25.10;99.90
9951;DHT22;24074;49.254;6.702;2023-06-10T05:47:28;26.00;99.90
9951;DHT22;24074;49.254;6.702;2023-06-10T05:49:54;27.30;99.90
9951;DHT22;24074;49.254;6.702;2023-06-10T05:52:20;27.40;99.90
9951;DHT22;24074;49.254;6.702;2023-06-10T05:54:46;27.30;99.90
9951;DHT22;24074;49.254;6.702;2023-06-10T05:57:11;27.20;99.90
9951;DHT22;24074;49.254;6.702;2023-06-10T05:59:37;26.90;99.90
9951;DHT22;24074;49.254;6.702;2023-06-10T06:02:02;26.80;99.90
9951;DHT22;24074;49.254;6.702;2023-06-10T06:04:28;27.60;99.90
9951;DHT22;24074;49.254;6.702;2023-06-10T06:06:54;28.30;99.90
9951;DHT22;24074;49.254;6.702;2023-06-10T06:09:19;28.80;99.90
9951;DHT22;24074;49.254;6.702;2023-06-10T06:11:45;28.40;99.90
9951;DHT22;24074;49.254;6.702;2023-06-10T06:14:11;28.80;99.10
9951;DHT22;24074;49.254;6.702;2023-06-10T06:16:36;29.30;96.60
9951;DHT22;24074;49.254;6.702;2023-06-10T06:19:02;29.20;96.20
9951;DHT22;24074;49.254;6.702;2023-06-10T06:21:27;29.40;96.50
9951;DHT22;24074;49.254;6.702;2023-06-10T06:23:53;29.20;96.80
9951;DHT22;24074;49.254;6.702;2023-06-10T06:26:18;29.40;97.00
9951;DHT22;24074;49.254;6.702;2023-06-10T06:28:44;30.10;94.70
9951;DHT22;24074;49.254;6.702;2023-06-10T06:31:09;29.40;95.10
9951;DHT22;24074;49.254;6.702;2023-06-10T06:33:35;29.40;96.70
9951;DHT22;24074;49.254;6.702;2023-06-10T06:36:01;29.70;95.80
9951;DHT22;24074;49.254;6.702;2023-06-10T06:38:26;30.20;94.30
9951;DHT22;24074;49.254;6.702;2023-06-10T06:40:52;30.50;93.60
9951;DHT22;24074;49.254;6.702;2023-06-10T06:43:18;31.20;91.40
9951;DHT22;24074;49.254;6.702;2023-06-10T06:45:44;31.40;89.90
9951;DHT22;24074;49.254;6.702;2023-06-10T06:48:11;31.50;87.30
9951;DHT22;24074;49.254;6.702;2023-06-10T06:50:36;31.90;84.40
9951;DHT22;24074;49.254;6.702;2023-06-10T06:53:02;32.00;83.40
9951;DHT22;24074;49.254;6.702;2023-06-10T06:55:28;32.50;81.30
9951;DHT22;24074;49.254;6.702;2023-06-10T06:57:54;32.40;84.40
9951;DHT22;24074;49.254;6.702;2023-06-10T07:00:19;32.70;80.00
9951;DHT22;24074;49.254;6.702;2023-06-10T07:02:45;32.70;80.10
9951;DHT22;24074;49.254;6.702;2023-06-10T07:05:13;32.70;77.80
9951;DHT22;24074;49.254;6.702;2023-06-10T07:07:39;32.80;78.70
9951;DHT22;24074;49.254;6.702;2023-06-10T07:10:05;33.20;76.50
9951;DHT22;24074;49.254;6.702;2023-06-10T07:12:31;33.50;73.50
9951;DHT22;24074;49.254;6.702;2023-06-10T07:14:56;33.00;72.30
9951;DHT22;24074;49.254;6.702;2023-06-10T07:17:22;32.70;74.70
9951;DHT22;24074;49.254;6.702;2023-06-10T07:19:48;32.50;76.40
9951;DHT22;24074;49.254;6.702;2023-06-10T07:22:14;33.30;71.80
9951;DHT22;24074;49.254;6.702;2023-06-10T07:24:39;33.40;71.40
9951;DHT22;24074;49.254;6.702;2023-06-10T07:27:05;33.00;69.50
9951;DHT22;24074;49.254;6.702;2023-06-10T07:29:32;32.90;70.10
9951;DHT22;24074;49.254;6.702;2023-06-10T07:31:58;33.00;69.40
9951;DHT22;24074;49.254;6.702;2023-06-10T07:34:23;32.50;69.70
9951;DHT22;24074;49.254;6.702;2023-06-10T07:36:49;33.00;67.80
9951;DHT22;24074;49.254;6.702;2023-06-10T07:39:14;33.00;67.10
9951;DHT22;24074;49.254;6.702;2023-06-10T07:41:40;32.80;66.80
9951;DHT22;24074;49.254;6.702;2023-06-10T07:44:06;33.10;66.80
9951;DHT22;24074;49.254;6.702;2023-06-10T07:46:31;32.90;65.10
9951;DHT22;24074;49.254;6.702;2023-06-10T07:48:57;31.90;66.30
9951;DHT22;24074;49.254;6.702;2023-06-10T07:51:22;31.70;67.80
9951;DHT22;24074;49.254;6.702;2023-06-10T07:53:48;32.00;68.80
9951;DHT22;24074;49.254;6.702;2023-06-10T07:56:14;32.70;65.80
9951;DHT22;24074;49.254;6.702;2023-06-10T07:58:39;32.60;66.80
9951;DHT22;24074;49.254;6.702;2023-06-10T08:01:05;33.20;64.50
9951;DHT22;24074;49.254;6.702;2023-06-10T08:03:30;33.40;64.10
9951;DHT22;24074;49.254;6.702;2023-06-10T08:05:56;33.40;64.90
9951;DHT22;24074;49.254;6.702;2023-06-10T08:08:25;34.00;63.20
9951;DHT22;24074;49.254;6.702;2023-06-10T08:10:50;33.60;63.50
9951;DHT22;24074;49.254;6.702;2023-06-10T08:13:16;33.10;60.60
9951;DHT22;24074;49.254;6.702;2023-06-10T08:15:41;32.40;63.40
9951;DHT22;24074;49.254;6.702;2023-06-10T08:18:07;32.80;64.70
9951;DHT22;24074;49.254;6.702;2023-06-10T08:20:32;33.80;62.90
9951;DHT22;24074;49.254;6.702;2023-06-10T08:22:58;33.10;62.30
9951;DHT22;24074;49.254;6.702;2023-06-10T08:25:23;33.30;61.80
9951;DHT22;24074;49.254;6.702;2023-06-10T08:27:49;33.40;62.30
9951;DHT22;24074;49.254;6.702;2023-06-10T08:30:16;32.50;64.30
9951;DHT22;24074;49.254;6.702;2023-06-10T08:32:42;32.80;62.50
9951;DHT22;24074;49.254;6.702;2023-06-10T08:35:07;32.90;63.10
9951;DHT22;24074;49.254;6.702;2023-06-10T08:37:33;32.00;63.40
9951;DHT22;24074;49.254;6.702;2023-06-10T08:39:59;32.20;63.30
9951;DHT22;24074;49.254;6.702;2023-06-10T08:42:39;33.10;62.20
9951;DHT22;24074;49.254;6.702;2023-06-10T08:45:07;33.40;61.10
9951;DHT22;24074;49.254;6.702;2023-06-10T08:47:39;33.20;61.80
9951;DHT22;24074;49.254;6.702;2023-06-10T08:50:07;34.20;61.40
9951;DHT22;24074;49.254;6.702;2023-06-10T08:52:36;33.90;59.60
9951;DHT22;24074;49.254;6.702;2023-06-10T08:55:18;34.00;60.30
9951;DHT22;24074;49.254;6.702;2023-06-10T08:57:48;35.30;59.50
9951;DHT22;24074;49.254;6.702;2023-06-10T09:00:15;36.20;58.20
9951;DHT22;24074;49.254;6.702;2023-06-10T09:02:42;35.70;56.50
9951;DHT22;24074;49.254;6.702;2023-06-10T09:05:09;34.30;58.20
9951;DHT22;24074;49.254;6.702;2023-06-10T09:07:35;35.40;58.00
9951;DHT22;24074;49.254;6.702;2023-06-10T09:10:02;35.40;58.60
9951;DHT22;24074;49.254;6.702;2023-06-10T09:12:35;35.50;57.80
9951;DHT22;24074;49.254;6.702;2023-06-10T09:15:03;35.40;57.40
9951;DHT22;24074;49.254;6.702;2023-06-10T09:17:32;34.60;57.40
9951;DHT22;24074;49.254;6.702;2023-06-10T09:19:59;33.40;60.60
9951;DHT22;24074;49.254;6.702;2023-06-10T09:22:25;33.40;59.60
9951;DHT22;24074;49.254;6.702;2023-06-10T09:25:01;33.20;59.60
9951;DHT22;24074;49.254;6.702;2023-06-10T09:27:30;32.70;60.00
9951;DHT22;24074;49.254;6.702;2023-06-10T09:29:57;32.50;60.10
9951;DHT22;24074;49.254;6.702;2023-06-10T09:32:23;32.80;60.30
9951;DHT22;24074;49.254;6.702;2023-06-10T09:34:50;33.00;59.60
9951;DHT22;24074;49.254;6.702;2023-06-10T09:37:22;33.50;60.60
9951;DHT22;24074;49.254;6.702;2023-06-10T09:40:04;34.20;59.30
9951;DHT22;24074;49.254;6.702;2023-06-10T09:42:35;34.10;58.90
9951;DHT22;24074;49.254;6.702;2023-06-10T09:45:04;33.60;58.80
9951;DHT22;24074;49.254;6.702;2023-06-10T09:47:31;33.60;59.40
9951;DHT22;24074;49.254;6.702;2023-06-10T09:49:56;34.00;58.90
9951;DHT22;24074;49.254;6.702;2023-06-10T09:52:26;34.00;59.80
9951;DHT22;24074;49.254;6.702;2023-06-10T09:54:52;34.50;59.10
9951;DHT22;24074;49.254;6.702;2023-06-10T09:57:19;34.40;59.20
9951;DHT22;24074;49.254;6.702;2023-06-10T09:59:45;35.60;59.20
9951;DHT22;24074;49.254;6.702;2023-06-10T10:02:17;36.00;56.70
9951;DHT22;24074;49.254;6.702;2023-06-10T10:04:44;35.50;56.90
9951;DHT22;24074;49.254;6.702;2023-06-10T10:07:10;35.00;58.10
9951;DHT22;24074;49.254;6.702;2023-06-10T10:09:39;33.00;59.30
9951;DHT22;24074;49.254;6.702;2023-06-10T10:12:15;31.80;61.40
9951;DHT22;24074;49.254;6.702;2023-06-10T10:14:46;32.40;60.70
9951;DHT22;24074;49.254;6.702;2023-06-10T10:17:14;33.00;59.60
9951;DHT22;24074;49.254;6.702;2023-06-10T10:19:48;33.50;58.80
9951;DHT22;24074;49.254;6.702;2023-06-10T10:22:24;34.50;57.40
9951;DHT22;24074;49.254;6.702;2023-06-10T10:24:53;33.80;57.70
9951;DHT22;24074;49.254;6.702;2023-06-10T10:27:29;34.30;58.50
9951;DHT22;24074;49.254;6.702;2023-06-10T10:29:58;35.10;58.80
9951;DHT22;24074;49.254;6.702;2023-06-10T10:32:38;36.00;57.10
9951;DHT22;24074;49.254;6.702;2023-06-10T10:35:17;34.80;58.10
9951;DHT22;24074;49.254;6.702;2023-06-10T10:37:43;34.20;58.40
9951;DHT22;24074;49.254;6.702;2023-06-10T10:40:10;34.10;58.80
9951;DHT22;24074;49.254;6.702;2023-06-10T10:42:36;34.60;56.90
9951;DHT22;24074;49.254;6.702;2023-06-10T10:45:04;34.00;57.50
9951;DHT22;24074;49.254;6.702;2023-06-10T10:47:30;33.20;58.50
9951;DHT22;24074;49.254;6.702;2023-06-10T10:49:58;33.80;59.10
9951;DHT22;24074;49.254;6.702;2023-06-10T10:52:25;34.10;57.70
9951;DHT22;24074;49.254;6.702;2023-06-10T10:54:53;35.00;57.20
9951;DHT22;24074;49.254;6.702;2023-06-10T10:57:20;35.20;57.30
9951;DHT22;24074;49.254;6.702;2023-06-10T10:59:52;34.80;56.60
9951;DHT22;24074;49.254;6.702;2023-06-10T11:05:06;33.50;57.80
9951;DHT22;24074;49.254;6.702;2023-06-10T11:07:33;34.40;56.90
9951;DHT22;24074;49.254;6.702;2023-06-10T11:10:09;34.40;56.60
9951;DHT22;24074;49.254;6.702;2023-06-10T11:15:13;33.40;57.30
9951;DHT22;24074;49.254;6.702;2023-06-10T11:20:51;32.70;58.40
9951;DHT22;24074;49.254;6.702;2023-06-10T11:26:18;33.00;57.60
9951;DHT22;24074;49.254;6.702;2023-06-10T11:31:25;31.70;58.60
9951;DHT22;24074;49.254;6.702;2023-06-10T11:33:55;31.30;58.70
9951;DHT22;24074;49.254;6.702;2023-06-10T11:36:22;31.60;60.80
9951;DHT22;24074;49.254;6.702;2023-06-10T11:38:48;31.30;59.90
9951;DHT22;24074;49.254;6.702;2023-06-10T11:41:15;31.30;60.30
9951;DHT22;24074;49.254;6.702;2023-06-10T11:43:45;31.10;58.70
9951;DHT22;24074;49.254;6.702;2023-06-10T11:46:12;31.00;59.00
9951;DHT22;24074;49.254;6.702;2023-06-10T11:48:38;30.80;59.50
9951;DHT22;24074;49.254;6.702;2023-06-10T11:51:07;30.60;58.50
9951;DHT22;24074;49.254;6.702;2023-06-10T11:53:33;30.20;60.10
9951;DHT22;24074;49.254;6.702;2023-06-10T11:55:59;29.90;61.10
9951;DHT22;24074;49.254;6.702;2023-06-10T11:58:25;29.60;62.10
9951;DHT22;24074;49.254;6.702;2023-06-10T12:00:52;30.00;60.40
9951;DHT22;24074;49.254;6.702;2023-06-10T12:03:27;30.30;59.90
9951;DHT22;24074;49.254;6.702;2023-06-10T12:06:01;30.40;61.80
9951;DHT22;24074;49.254;6.702;2023-06-10T12:08:28;29.80;59.10
9951;DHT22;24074;49.254;6.702;2023-06-10T12:10:54;30.00;61.40
9951;DHT22;24074;49.254;6.702;2023-06-10T12:13:20;30.20;59.70
9951;DHT22;24074;49.254;6.702;2023-06-10T12:15:46;30.10;61.40
9951;DHT22;24074;49.254;6.702;2023-06-10T12:18:23;29.80;60.20
9951;DHT22;24074;49.254;6.702;2023-06-10T12:20:49;29.50;61.40
9951;DHT22;24074;49.254;6.702;2023-06-10T12:23:17;29.40;61.60
9951;DHT22;24074;49.254;6.702;2023-06-10T12:25:53;29.60;62.90
9951;DHT22;24074;49.254;6.702;2023-06-10T12:28:26;29.30;62.60
9951;DHT22;24074;49.254;6.702;2023-06-10T12:31:06;29.30;61.70
9951;DHT22;24074;49.254;6.702;2023-06-10T12:33:32;30.00;61.70
9951;DHT22;24074;49.254;6.702;2023-06-10T12:35:58;29.80;60.90
9951;DHT22;24074;49.254;6.702;2023-06-10T12:38:25;29.60;62.60
9951;DHT22;24074;49.254;6.702;2023-06-10T12:40:53;29.60;63.90
9951;DHT22;24074;49.254;6.702;2023-06-10T12:43:20;29.80;61.10
9951;DHT22;24074;49.254;6.702;2023-06-10T12:45:46;30.20;60.80
9951;DHT22;24074;49.254;6.702;2023-06-10T12:50:43;30.10;59.40
9951;DHT22;24074;49.254;6.702;2023-06-10T12:53:10;30.20;59.30
9951;DHT22;24074;49.254;6.702;2023-06-10T12:55:37;30.20;58.20
9951;DHT22;24074;49.254;6.702;2023-06-10T12:58:03;30.10;58.10
9951;DHT22;24074;49.254;6.702;2023-06-10T13:00:29;30.60;58.70
9951;DHT22;24074;49.254;6.702;2023-06-10T13:03:00;30.90;59.30
9951;DHT22;24074;49.254;6.702;2023-06-10T13:05:28;31.10;58.80
9951;DHT22;24074;49.254;6.702;2023-06-10T13:07:54;31.10;58.20
9951;DHT22;24074;49.254;6.702;2023-06-10T13:10:21;31.20;59.50
9951;DHT22;24074;49.254;6.702;2023-06-10T13:12:47;31.10;57.90
9951;DHT22;24074;49.254;6.702;2023-06-10T13:15:13;31.20;57.50
9951;DHT22;24074;49.254;6.702;2023-06-10T13:17:38;30.90;57.70
9951;DHT22;24074;49.254;6.702;2023-06-10T13:20:06;30.90;59.00
9951;DHT22;24074;49.254;6.702;2023-06-10T13:22:33;31.10;58.60
9951;DHT22;24074;49.254;6.702;2023-06-10T13:25:00;31.20;57.70
9951;DHT22;24074;49.254;6.702;2023-06-10T13:27:26;31.20;57.00
9951;DHT22;24074;49.254;6.702;2023-06-10T13:29:52;31.40;57.80
9951;DHT22;24074;49.254;6.702;2023-06-10T13:32:18;31.10;57.90
9951;DHT22;24074;49.254;6.702;2023-06-10T13:34:44;30.40;58.40
9951;DHT22;24074;49.254;6.702;2023-06-10T13:37:09;29.90;59.90
9951;DHT22;24074;49.254;6.702;2023-06-10T13:39:35;29.60;59.50
9951;DHT22;24074;49.254;6.702;2023-06-10T13:42:05;29.60;60.10
9951;DHT22;24074;49.254;6.702;2023-06-10T13:44:33;30.30;59.80
9951;DHT22;24074;49.254;6.702;2023-06-10T13:47:04;30.50;59.30
9951;DHT22;24074;49.254;6.702;2023-06-10T13:49:30;29.90;58.80
9951;DHT22;24074;49.254;6.702;2023-06-10T13:51:56;30.10;58.00
9951;DHT22;24074;49.254;6.702;2023-06-10T13:54:22;30.20;57.80
9951;DHT22;24074;49.254;6.702;2023-06-10T13:56:48;30.60;58.20
9951;DHT22;24074;49.254;6.702;2023-06-10T13:59:13;30.60;56.60
9951;DHT22;24074;49.254;6.702;2023-06-10T14:01:39;30.90;56.30
9951;DHT22;24074;49.254;6.702;2023-06-10T14:04:06;31.10;56.00
9951;DHT22;24074;49.254;6.702;2023-06-10T14:06:32;31.40;58.70
9951;DHT22;24074;49.254;6.702;2023-06-10T14:08:59;31.20;57.90
9951;DHT22;24074;49.254;6.702;2023-06-10T14:11:24;31.30;58.00
9951;DHT22;24074;49.254;6.702;2023-06-10T14:13:50;31.00;57.40
9951;DHT22;24074;49.254;6.702;2023-06-10T14:16:15;30.20;58.50
9951;DHT22;24074;49.254;6.702;2023-06-10T14:18:42;29.90;58.80
9951;DHT22;24074;49.254;6.702;2023-06-10T14:21:07;30.10;58.40
9951;DHT22;24074;49.254;6.702;2023-06-10T14:23:33;30.40;58.20
9951;DHT22;24074;49.254;6.702;2023-06-10T14:25:59;30.40;60.60
9951;DHT22;24074;49.254;6.702;2023-06-10T14:28:25;30.60;60.80
9951;DHT22;24074;49.254;6.702;2023-06-10T14:30:51;30.60;59.00
9951;DHT22;24074;49.254;6.702;2023-06-10T14:33:18;30.50;57.50
9951;DHT22;24074;49.254;6.702;2023-06-10T14:35:43;30.60;57.50
9951;DHT22;24074;49.254;6.702;2023-06-10T14:38:09;30.60;58.40
9951;DHT22;24074;49.254;6.702;2023-06-10T14:40:35;30.70;58.50
9951;DHT22;24074;49.254;6.702;2023-06-10T14:43:01;30.80;58.20
9951;DHT22;24074;49.254;6.702;2023-06-10T14:45:29;30.90;58.20
9951;DHT22;24074;49.254;6.702;2023-06-10T14:47:55;31.10;58.80
9951;DHT22;24074;49.254;6.702;2023-06-10T14:50:20;31.30;56.40
9951;DHT22;24074;49.254;6.702;2023-06-10T14:52:46;31.30;55.80
9951;DHT22;24074;49.254;6.702;2023-06-10T14:55:11;31.50;57.00
9951;DHT22;24074;49.254;6.702;2023-06-10T14:57:37;31.80;56.30
9951;DHT22;24074;49.254;6.702;2023-06-10T15:00:03;32.00;57.30
9951;DHT22;24074;49.254;6.702;2023-06-10T15:02:32;31.80;59.10
9951;DHT22;24074;49.254;6.702;2023-06-10T15:04:57;31.50;59.00
9951;DHT22;24074;49.254;6.702;2023-06-10T15:07:25;30.60;59.00
9951;DHT22;24074;49.254;6.702;2023-06-10T15:09:51;30.20;60.30
9951;DHT22;24074;49.254;6.702;2023-06-10T15:12:17;29.80;60.70
9951;DHT22;24074;49.254;6.702;2023-06-10T15:14:42;29.30;61.10
9951;DHT22;24074;49.254;6.702;2023-06-10T15:17:08;28.90;61.70
9951;DHT22;24074;49.254;6.702;2023-06-10T15:19:33;28.80;62.30
9951;DHT22;24074;49.254;6.702;2023-06-10T15:21:59;28.70;63.40
9951;DHT22;24074;49.254;6.702;2023-06-10T15:24:24;29.20;62.60
9951;DHT22;24074;49.254;6.702;2023-06-10T15:26:50;29.90;60.30
9951;DHT22;24074;49.254;6.702;2023-06-10T15:29:16;30.30;60.20
9951;DHT22;24074;49.254;6.702;2023-06-10T15:31:41;30.50;59.80
9951;DHT22;24074;49.254;6.702;2023-06-10T15:34:07;30.60;58.80
9951;DHT22;24074;49.254;6.702;2023-06-10T15:36:33;30.60;59.30
9951;DHT22;24074;49.254;6.702;2023-06-10T15:39:03;30.90;59.70
9951;DHT22;24074;49.254;6.702;2023-06-10T15:41:32;31.00;59.80
9951;DHT22;24074;49.254;6.702;2023-06-10T15:43:58;30.90;59.30
9951;DHT22;24074;49.254;6.702;2023-06-10T15:46:28;30.60;59.70
9951;DHT22;24074;49.254;6.702;2023-06-10T15:48:55;30.30;58.80
9951;DHT22;24074;49.254;6.702;2023-06-10T15:51:21;30.20;59.90
9951;DHT22;24074;49.254;6.702;2023-06-10T15:53:46;30.00;61.20
9951;DHT22;24074;49.254;6.702;2023-06-10T15:56:13;30.20;60.50
9951;DHT22;24074;49.254;6.702;2023-06-10T15:58:39;30.30;60.60
9951;DHT22;24074;49.254;6.702;2023-06-10T16:01:05;30.20;61.30
9951;DHT22;24074;49.254;6.702;2023-06-10T16:03:31;30.30;61.30